sensor_id;sensor_type;location;lat;lon;timestamp;P1;durP1;ratioP1;P2;durP2;ratioP2
29954;SDS011;16812;51.168;6.840;2022-08-19T00:01:42;16.20;;;9.40;;
29954;SDS011;16812;51.168;6.840;2022-08-19T00:04:10;15.57;;;10.00;;
29954;SDS011;16812;51.168;6.840;2022-08-19T00:06:39;12.03;;;9.13;;
29954;SDS011;16812;51.168;6.840;2022-08-19T00:09:08;9.30;;;8.27;;
29954;SDS011;16812;51.168;6.840;2022-08-19T00:11:36;11.50;;;9.37;;
29954;SDS011;16812;51.168;6.840;2022-08-19T00:14:04;10.07;;;8.27;;
29954;SDS011;16812;51.168;6.840;2022-08-19T00:16:31;10.17;;;9.00;;
29954;SDS011;16812;51.168;6.840;2022-08-19T00:18:58;11.33;;;8.90;;
29954;SDS011;16812;51.168;6.840;2022-08-19T00:21:26;10.50;;;8.90;;
29954;SDS011;16812;51.168;6.840;2022-08-19T00:23:56;11.00;;;9.47;;
29954;SDS011;16812;51.168;6.840;2022-08-19T00:26:23;10.13;;;8.63;;
29954;SDS011;16812;51.168;6.840;2022-08-19T00:28:51;8.70;;;7.47;;
29954;SDS011;16812;51.168;6.840;2022-08-19T00:31:18;12.47;;;8.20;;
29954;SDS011;16812;51.168;6.840;2022-08-19T00:33:45;10.70;;;9.60;;
29954;SDS011;16812;51.168;6.840;2022-08-19T00:36:12;12.57;;;9.13;;
29954;SDS011;16812;51.168;6.840;2022-08-19T00:38:39;12.07;;;10.40;;
29954;SDS011;16812;51.168;6.840;2022-08-19T00:41:08;14.00;;;11.33;;
29954;SDS011;16812;51.168;6.840;2022-08-19T00:43:35;11.43;;;10.33;;
29954;SDS011;16812;51.168;6.840;2022-08-19T00:46:02;12.73;;;11.37;;
29954;SDS011;16812;51.168;6.840;2022-08-19T00:48:30;12.83;;;10.20;;
29954;SDS011;16812;51.168;6.840;2022-08-19T00:50:58;14.23;;;11.00;;
29954;SDS011;16812;51.168;6.840;2022-08-19T00:53:26;13.07;;;11.03;;
29954;SDS011;16812;51.168;6.840;2022-08-19T00:55:55;13.73;;;10.90;;
29954;SDS011;16812;51.168;6.840;2022-08-19T00:58:26;11.90;;;10.70;;
29954;SDS011;16812;51.168;6.840;2022-08-19T01:00:53;20.20;;;14.07;;
29954;SDS011;16812;51.168;6.840;2022-08-19T01:03:22;14.00;;;11.50;;
29954;SDS011;16812;51.168;6.840;2022-08-19T01:05:50;20.57;;;12.33;;
29954;SDS011;16812;51.168;6.840;2022-08-19T01:08:19;17.70;;;13.80;;
29954;SDS011;16812;51.168;6.840;2022-08-19T01:10:49;19.57;;;12.97;;
29954;SDS011;16812;51.168;6.840;2022-08-19T01:13:17;17.90;;;13.13;;
29954;SDS011;16812;51.168;6.840;2022-08-19T01:15:46;24.60;;;14.33;;
29954;SDS011;16812;51.168;6.840;2022-08-19T01:18:15;22.13;;;14.80;;
29954;SDS011;16812;51.168;6.840;2022-08-19T01:20:43;19.23;;;14.17;;
29954;SDS011;16812;51.168;6.840;2022-08-19T01:23:12;18.67;;;13.40;;
29954;SDS011;16812;51.168;6.840;2022-08-19T01:25:41;16.10;;;13.37;;
29954;SDS011;16812;51.168;6.840;2022-08-19T01:28:14;14.77;;;13.17;;
29954;SDS011;16812;51.168;6.840;2022-08-19T01:30:42;17.83;;;13.53;;
29954;SDS011;16812;51.168;6.840;2022-08-19T01:33:16;17.13;;;12.63;;
29954;SDS011;16812;51.168;6.840;2022-08-19T01:35:43;14.83;;;13.10;;
29954;SDS011;16812;51.168;6.840;2022-08-19T01:38:19;14.63;;;12.50;;
29954;SDS011;16812;51.168;6.840;2022-08-19T01:40:46;16.60;;;12.70;;
29954;SDS011;16812;51.168;6.840;2022-08-19T01:43:13;16.20;;;13.47;;
29954;SDS011;16812;51.168;6.840;2022-08-19T01:45:40;16.50;;;12.73;;
29954;SDS011;16812;51.168;6.840;2022-08-19T01:48:08;22.90;;;11.73;;
29954;SDS011;16812;51.168;6.840;2022-08-19T01:50:35;15.70;;;12.77;;
29954;SDS011;16812;51.168;6.840;2022-08-19T01:53:03;16.77;;;13.40;;
29954;SDS011;16812;51.168;6.840;2022-08-19T01:55:34;18.47;;;15.13;;
29954;SDS011;16812;51.168;6.840;2022-08-19T01:58:06;20.87;;;14.43;;
29954;SDS011;16812;51.168;6.840;2022-08-19T02:00:34;17.60;;;14.30;;
29954;SDS011;16812;51.168;6.840;2022-08-19T02:03:01;20.23;;;14.90;;
29954;SDS011;16812;51.168;6.840;2022-08-19T02:05:29;22.53;;;14.03;;
29954;SDS011;16812;51.168;6.840;2022-08-19T02:07:56;20.07;;;14.87;;
29954;SDS011;16812;51.168;6.840;2022-08-19T02:10:23;22.33;;;15.70;;
29954;SDS011;16812;51.168;6.840;2022-08-19T02:12:52;19.57;;;15.37;;
29954;SDS011;16812;51.168;6.840;2022-08-19T02:15:19;22.17;;;15.93;;
29954;SDS011;16812;51.168;6.840;2022-08-19T02:17:47;19.17;;;15.43;;
29954;SDS011;16812;51.168;6.840;2022-08-19T02:20:14;25.37;;;17.93;;
29954;SDS011;16812;51.168;6.840;2022-08-19T02:22:42;25.17;;;19.37;;
29954;SDS011;16812;51.168;6.840;2022-08-19T02:25:09;29.97;;;20.50;;
29954;SDS011;16812;51.168;6.840;2022-08-19T02:27:37;26.33;;;18.77;;
29954;SDS011;16812;51.168;6.840;2022-08-19T02:30:07;23.93;;;19.10;;
29954;SDS011;16812;51.168;6.840;2022-08-19T02:32:39;27.77;;;19.90;;
29954;SDS011;16812;51.168;6.840;2022-08-19T02:35:10;26.33;;;19.00;;
29954;SDS011;16812;51.168;6.840;2022-08-19T02:37:38;30.93;;;21.10;;
29954;SDS011;16812;51.168;6.840;2022-08-19T02:40:05;29.47;;;20.10;;
29954;SDS011;16812;51.168;6.840;2022-08-19T02:42:38;30.20;;;21.03;;
29954;SDS011;16812;51.168;6.840;2022-08-19T02:45:07;26.33;;;20.80;;
29954;SDS011;16812;51.168;6.840;2022-08-19T02:47:34;29.30;;;21.37;;
29954;SDS011;16812;51.168;6.840;2022-08-19T02:50:01;31.40;;;22.50;;
29954;SDS011;16812;51.168;6.840;2022-08-19T02:52:29;34.40;;;24.00;;
29954;SDS011;16812;51.168;6.840;2022-08-19T02:54:56;28.33;;;22.80;;
29954;SDS011;16812;51.168;6.840;2022-08-19T02:57:23;32.53;;;25.20;;
29954;SDS011;16812;51.168;6.840;2022-08-19T02:59:51;33.17;;;24.10;;
29954;SDS011;16812;51.168;6.840;2022-08-19T03:02:19;35.03;;;23.10;;
29954;SDS011;16812;51.168;6.840;2022-08-19T03:04:46;33.40;;;25.00;;
29954;SDS011;16812;51.168;6.840;2022-08-19T03:07:14;32.13;;;25.47;;
29954;SDS011;16812;51.168;6.840;2022-08-19T03:09:42;34.07;;;25.50;;
29954;SDS011;16812;51.168;6.840;2022-08-19T03:12:09;26.90;;;20.17;;
29954;SDS011;16812;51.168;6.840;2022-08-19T03:14:36;34.93;;;23.60;;
29954;SDS011;16812;51.168;6.840;2022-08-19T03:17:04;33.97;;;22.50;;
29954;SDS011;16812;51.168;6.840;2022-08-19T03:19:32;31.40;;;23.40;;
29954;SDS011;16812;51.168;6.840;2022-08-19T03:21:59;35.83;;;25.53;;
29954;SDS011;16812;51.168;6.840;2022-08-19T03:24:26;41.33;;;27.13;;
29954;SDS011;16812;51.168;6.840;2022-08-19T03:26:54;37.20;;;27.17;;
29954;SDS011;16812;51.168;6.840;2022-08-19T03:29:22;40.70;;;28.30;;
29954;SDS011;16812;51.168;6.840;2022-08-19T03:31:57;35.73;;;25.20;;
29954;SDS011;16812;51.168;6.840;2022-08-19T03:34:24;39.60;;;29.43;;
29954;SDS011;16812;51.168;6.840;2022-08-19T03:36:54;40.50;;;26.63;;
29954;SDS011;16812;51.168;6.840;2022-08-19T03:39:22;33.67;;;26.30;;
29954;SDS011;16812;51.168;6.840;2022-08-19T03:41:50;38.63;;;28.40;;
29954;SDS011;16812;51.168;6.840;2022-08-19T03:44:38;42.37;;;31.10;;
29954;SDS011;16812;51.168;6.840;2022-08-19T03:47:05;39.70;;;28.03;;
29954;SDS011;16812;51.168;6.840;2022-08-19T03:49:33;40.40;;;28.47;;
29954;SDS011;16812;51.168;6.840;2022-08-19T03:52:01;48.60;;;30.30;;
29954;SDS011;16812;51.168;6.840;2022-08-19T03:54:29;42.63;;;27.20;;
29954;SDS011;16812;51.168;6.840;2022-08-19T03:56:56;43.03;;;28.23;;
29954;SDS011;16812;51.168;6.840;2022-08-19T03:59:24;52.43;;;32.13;;
29954;SDS011;16812;51.168;6.840;2022-08-19T04:01:52;55.90;;;37.33;;
29954;SDS011;16812;51.168;6.840;2022-08-19T04:04:20;47.53;;;35.00;;
29954;SDS011;16812;51.168;6.840;2022-08-19T04:06:47;48.10;;;34.07;;
29954;SDS011;16812;51.168;6.840;2022-08-19T04:09:16;49.20;;;33.67;;
29954;SDS011;16812;51.168;6.840;2022-08-19T04:11:47;44.87;;;31.90;;
29954;SDS011;16812;51.168;6.840;2022-08-19T04:14:15;53.97;;;35.30;;
29954;SDS011;16812;51.168;6.840;2022-08-19T04:16:43;51.37;;;35.80;;
29954;SDS011;16812;51.168;6.840;2022-08-19T04:19:10;51.77;;;35.07;;
29954;SDS011;16812;51.168;6.840;2022-08-19T04:21:38;51.40;;;36.63;;
29954;SDS011;16812;51.168;6.840;2022-08-19T04:24:05;52.53;;;34.90;;
29954;SDS011;16812;51.168;6.840;2022-08-19T04:26:35;48.23;;;33.30;;
29954;SDS011;16812;51.168;6.840;2022-08-19T04:29:03;47.77;;;35.73;;
29954;SDS011;16812;51.168;6.840;2022-08-19T04:31:37;52.70;;;36.60;;
29954;SDS011;16812;51.168;6.840;2022-08-19T04:34:06;56.90;;;39.53;;
29954;SDS011;16812;51.168;6.840;2022-08-19T04:36:34;53.67;;;36.97;;
29954;SDS011;16812;51.168;6.840;2022-08-19T04:39:06;49.93;;;35.00;;
29954;SDS011;16812;51.168;6.840;2022-08-19T04:41:35;50.50;;;37.70;;
29954;SDS011;16812;51.168;6.840;2022-08-19T04:44:02;50.90;;;33.83;;
29954;SDS011;16812;51.168;6.840;2022-08-19T04:46:30;51.87;;;37.03;;
29954;SDS011;16812;51.168;6.840;2022-08-19T04:49:06;56.20;;;37.07;;
29954;SDS011;16812;51.168;6.840;2022-08-19T04:51:39;66.67;;;42.50;;
29954;SDS011;16812;51.168;6.840;2022-08-19T04:54:07;69.27;;;44.70;;
29954;SDS011;16812;51.168;6.840;2022-08-19T04:56:35;56.00;;;39.37;;
29954;SDS011;16812;51.168;6.840;2022-08-19T04:59:02;62.60;;;42.23;;
29954;SDS011;16812;51.168;6.840;2022-08-19T05:01:30;59.10;;;38.00;;
29954;SDS011;16812;51.168;6.840;2022-08-19T05:03:58;71.40;;;44.23;;
29954;SDS011;16812;51.168;6.840;2022-08-19T05:06:26;62.80;;;41.33;;
29954;SDS011;16812;51.168;6.840;2022-08-19T05:08:53;67.87;;;46.80;;
29954;SDS011;16812;51.168;6.840;2022-08-19T05:11:24;69.33;;;44.20;;
29954;SDS011;16812;51.168;6.840;2022-08-19T05:13:53;65.33;;;47.43;;
29954;SDS011;16812;51.168;6.840;2022-08-19T05:16:21;71.47;;;46.27;;
29954;SDS011;16812;51.168;6.840;2022-08-19T05:18:49;63.13;;;42.10;;
29954;SDS011;16812;51.168;6.840;2022-08-19T05:21:16;64.03;;;42.67;;
29954;SDS011;16812;51.168;6.840;2022-08-19T05:23:44;60.13;;;41.60;;
29954;SDS011;16812;51.168;6.840;2022-08-19T05:26:11;70.80;;;44.83;;
29954;SDS011;16812;51.168;6.840;2022-08-19T05:28:38;59.57;;;39.87;;
29954;SDS011;16812;51.168;6.840;2022-08-19T05:31:07;66.33;;;42.60;;
29954;SDS011;16812;51.168;6.840;2022-08-19T05:33:34;53.40;;;39.00;;
29954;SDS011;16812;51.168;6.840;2022-08-19T05:36:01;63.97;;;42.37;;
29954;SDS011;16812;51.168;6.840;2022-08-19T05:38:28;62.67;;;43.37;;
29954;SDS011;16812;51.168;6.840;2022-08-19T05:40:55;61.60;;;42.70;;
29954;SDS011;16812;51.168;6.840;2022-08-19T05:43:23;58.07;;;41.27;;
29954;SDS011;16812;51.168;6.840;2022-08-19T05:45:50;69.97;;;46.47;;
29954;SDS011;16812;51.168;6.840;2022-08-19T05:48:18;67.10;;;44.90;;
29954;SDS011;16812;51.168;6.840;2022-08-19T05:50:45;64.50;;;44.80;;
29954;SDS011;16812;51.168;6.840;2022-08-19T05:53:13;62.17;;;45.20;;
29954;SDS011;16812;51.168;6.840;2022-08-19T05:55:40;63.77;;;44.57;;
29954;SDS011;16812;51.168;6.840;2022-08-19T05:58:07;61.70;;;43.70;;
29954;SDS011;16812;51.168;6.840;2022-08-19T06:00:34;63.20;;;44.80;;
29954;SDS011;16812;51.168;6.840;2022-08-19T06:03:01;59.77;;;43.80;;
29954;SDS011;16812;51.168;6.840;2022-08-19T06:05:39;58.87;;;43.73;;
29954;SDS011;16812;51.168;6.840;2022-08-19T06:08:17;56.43;;;41.97;;
29954;SDS011;16812;51.168;6.840;2022-08-19T06:10:44;59.87;;;42.77;;
29954;SDS011;16812;51.168;6.840;2022-08-19T06:13:12;57.20;;;42.13;;
29954;SDS011;16812;51.168;6.840;2022-08-19T06:15:39;59.33;;;42.37;;
29954;SDS011;16812;51.168;6.840;2022-08-19T06:18:06;54.07;;;39.57;;
29954;SDS011;16812;51.168;6.840;2022-08-19T06:20:33;55.70;;;42.90;;
29954;SDS011;16812;51.168;6.840;2022-08-19T06:23:21;58.87;;;43.10;;
29954;SDS011;16812;51.168;6.840;2022-08-19T06:25:49;53.13;;;40.23;;
29954;SDS011;16812;51.168;6.840;2022-08-19T06:28:16;54.07;;;41.97;;
29954;SDS011;16812;51.168;6.840;2022-08-19T06:30:44;62.10;;;42.80;;
29954;SDS011;16812;51.168;6.840;2022-08-19T06:33:11;55.87;;;42.70;;
29954;SDS011;16812;51.168;6.840;2022-08-19T06:35:39;63.03;;;46.43;;
29954;SDS011;16812;51.168;6.840;2022-08-19T06:38:06;57.83;;;42.00;;
29954;SDS011;16812;51.168;6.840;2022-08-19T06:40:34;58.63;;;42.90;;
29954;SDS011;16812;51.168;6.840;2022-08-19T06:43:02;55.70;;;42.30;;
29954;SDS011;16812;51.168;6.840;2022-08-19T06:45:33;59.23;;;41.57;;
29954;SDS011;16812;51.168;6.840;2022-08-19T06:48:04;57.47;;;42.77;;
29954;SDS011;16812;51.168;6.840;2022-08-19T06:50:32;56.43;;;39.10;;
29954;SDS011;16812;51.168;6.840;2022-08-19T06:53:02;59.50;;;41.90;;
29954;SDS011;16812;51.168;6.840;2022-08-19T06:55:29;57.43;;;40.67;;
29954;SDS011;16812;51.168;6.840;2022-08-19T06:58:02;57.77;;;41.40;;
29954;SDS011;16812;51.168;6.840;2022-08-19T07:00:30;65.87;;;44.43;;
29954;SDS011;16812;51.168;6.840;2022-08-19T07:03:02;61.07;;;41.93;;
29954;SDS011;16812;51.168;6.840;2022-08-19T07:05:37;63.00;;;42.07;;
29954;SDS011;16812;51.168;6.840;2022-08-19T07:08:04;58.33;;;42.60;;
29954;SDS011;16812;51.168;6.840;2022-08-19T07:10:32;58.93;;;41.37;;
29954;SDS011;16812;51.168;6.840;2022-08-19T07:12:59;59.97;;;40.97;;
29954;SDS011;16812;51.168;6.840;2022-08-19T07:15:27;57.10;;;41.20;;
29954;SDS011;16812;51.168;6.840;2022-08-19T07:17:54;58.30;;;40.60;;
29954;SDS011;16812;51.168;6.840;2022-08-19T07:20:22;58.43;;;41.03;;
29954;SDS011;16812;51.168;6.840;2022-08-19T07:22:53;49.10;;;37.30;;
29954;SDS011;16812;51.168;6.840;2022-08-19T07:25:21;54.70;;;39.27;;
29954;SDS011;16812;51.168;6.840;2022-08-19T07:27:57;51.60;;;37.20;;
29954;SDS011;16812;51.168;6.840;2022-08-19T07:30:28;48.60;;;36.00;;
29954;SDS011;16812;51.168;6.840;2022-08-19T07:32:56;53.03;;;38.10;;
29954;SDS011;16812;51.168;6.840;2022-08-19T07:35:24;54.50;;;36.60;;
29954;SDS011;16812;51.168;6.840;2022-08-19T07:37:51;54.73;;;38.43;;
29954;SDS011;16812;51.168;6.840;2022-08-19T07:40:18;51.13;;;34.90;;
29954;SDS011;16812;51.168;6.840;2022-08-19T07:42:45;51.73;;;37.33;;
29954;SDS011;16812;51.168;6.840;2022-08-19T07:45:12;45.23;;;33.50;;
29954;SDS011;16812;51.168;6.840;2022-08-19T07:47:41;53.93;;;34.93;;
29954;SDS011;16812;51.168;6.840;2022-08-19T07:50:24;40.87;;;31.23;;
29954;SDS011;16812;51.168;6.840;2022-08-19T07:52:51;40.77;;;32.00;;
29954;SDS011;16812;51.168;6.840;2022-08-19T07:55:19;47.23;;;32.43;;
29954;SDS011;16812;51.168;6.840;2022-08-19T07:58:07;46.13;;;31.00;;
29954;SDS011;16812;51.168;6.840;2022-08-19T08:00:34;42.00;;;31.47;;
29954;SDS011;16812;51.168;6.840;2022-08-19T08:03:03;45.93;;;29.87;;
29954;SDS011;16812;51.168;6.840;2022-08-19T08:05:30;44.20;;;31.53;;
29954;SDS011;16812;51.168;6.840;2022-08-19T08:08:01;39.03;;;30.10;;
29954;SDS011;16812;51.168;6.840;2022-08-19T08:10:28;37.20;;;30.53;;
29954;SDS011;16812;51.168;6.840;2022-08-19T08:12:56;41.20;;;30.90;;
29954;SDS011;16812;51.168;6.840;2022-08-19T08:15:35;38.80;;;28.00;;
29954;SDS011;16812;51.168;6.840;2022-08-19T08:18:09;41.57;;;31.20;;
29954;SDS011;16812;51.168;6.840;2022-08-19T08:20:37;36.53;;;28.23;;
29954;SDS011;16812;51.168;6.840;2022-08-19T08:23:04;35.80;;;26.67;;
29954;SDS011;16812;51.168;6.840;2022-08-19T08:25:31;35.97;;;28.13;;
29954;SDS011;16812;51.168;6.840;2022-08-19T08:27:59;38.07;;;28.60;;
29954;SDS011;16812;51.168;6.840;2022-08-19T08:30:28;35.30;;;28.53;;
29954;SDS011;16812;51.168;6.840;2022-08-19T08:32:58;36.00;;;29.43;;
29954;SDS011;16812;51.168;6.840;2022-08-19T08:35:26;36.45;;;28.42;;
29954;SDS011;16812;51.168;6.840;2022-08-19T08:37:54;42.38;;;31.65;;
29954;SDS011;16812;51.168;6.840;2022-08-19T08:40:23;41.90;;;31.20;;
29954;SDS011;16812;51.168;6.840;2022-08-19T08:42:55;39.83;;;30.60;;
29954;SDS011;16812;51.168;6.840;2022-08-19T08:45:24;41.20;;;32.08;;
29954;SDS011;16812;51.168;6.840;2022-08-19T08:47:51;42.83;;;32.60;;
29954;SDS011;16812;51.168;6.840;2022-08-19T08:50:21;45.60;;;35.70;;
29954;SDS011;16812;51.168;6.840;2022-08-19T08:52:53;43.20;;;35.28;;
29954;SDS011;16812;51.168;6.840;2022-08-19T08:55:23;47.67;;;37.67;;
29954;SDS011;16812;51.168;6.840;2022-08-19T08:58:02;40.42;;;34.45;;
29954;SDS011;16812;51.168;6.840;2022-08-19T09:00:31;47.47;;;35.72;;
29954;SDS011;16812;51.168;6.840;2022-08-19T09:02:59;46.67;;;35.40;;
29954;SDS011;16812;51.168;6.840;2022-08-19T09:05:30;45.85;;;35.17;;
29954;SDS011;16812;51.168;6.840;2022-08-19T09:08:16;43.45;;;33.63;;
29954;SDS011;16812;51.168;6.840;2022-08-19T09:10:46;49.63;;;37.58;;
29954;SDS011;16812;51.168;6.840;2022-08-19T09:13:21;39.80;;;32.25;;
29954;SDS011;16812;51.168;6.840;2022-08-19T09:15:52;39.70;;;31.45;;
29954;SDS011;16812;51.168;6.840;2022-08-19T09:18:20;40.05;;;31.58;;
29954;SDS011;16812;51.168;6.840;2022-08-19T09:20:47;35.78;;;28.55;;
29954;SDS011;16812;51.168;6.840;2022-08-19T09:23:16;44.75;;;34.40;;
29954;SDS011;16812;51.168;6.840;2022-08-19T09:25:52;43.40;;;31.67;;
29954;SDS011;16812;51.168;6.840;2022-08-19T09:28:20;41.28;;;30.20;;
29954;SDS011;16812;51.168;6.840;2022-08-19T09:30:52;37.00;;;28.90;;
29954;SDS011;16812;51.168;6.840;2022-08-19T09:33:19;33.78;;;28.48;;
29954;SDS011;16812;51.168;6.840;2022-08-19T09:35:47;33.67;;;26.05;;
29954;SDS011;16812;51.168;6.840;2022-08-19T09:38:20;30.83;;;22.02;;
29954;SDS011;16812;51.168;6.840;2022-08-19T09:40:47;32.22;;;19.73;;
29954;SDS011;16812;51.168;6.840;2022-08-19T09:43:14;25.02;;;21.98;;
29954;SDS011;16812;51.168;6.840;2022-08-19T09:45:58;25.88;;;22.52;;
29954;SDS011;16812;51.168;6.840;2022-08-19T09:48:25;28.83;;;24.50;;
29954;SDS011;16812;51.168;6.840;2022-08-19T09:50:53;27.33;;;22.08;;
29954;SDS011;16812;51.168;6.840;2022-08-19T09:53:22;29.73;;;22.90;;
29954;SDS011;16812;51.168;6.840;2022-08-19T09:55:51;27.17;;;20.80;;
29954;SDS011;16812;51.168;6.840;2022-08-19T09:58:18;28.13;;;20.85;;
29954;SDS011;16812;51.168;6.840;2022-08-19T10:00:51;26.77;;;20.63;;
29954;SDS011;16812;51.168;6.840;2022-08-19T10:03:18;23.05;;;19.15;;
29954;SDS011;16812;51.168;6.840;2022-08-19T10:05:50;20.55;;;18.38;;
29954;SDS011;16812;51.168;6.840;2022-08-19T10:08:23;22.13;;;17.45;;
29954;SDS011;16812;51.168;6.840;2022-08-19T10:10:52;17.85;;;16.02;;
29954;SDS011;16812;51.168;6.840;2022-08-19T10:13:19;18.88;;;16.98;;
29954;SDS011;16812;51.168;6.840;2022-08-19T10:15:47;17.85;;;16.00;;
29954;SDS011;16812;51.168;6.840;2022-08-19T10:18:15;18.38;;;16.08;;
29954;SDS011;16812;51.168;6.840;2022-08-19T10:20:42;27.42;;;16.23;;
29954;SDS011;16812;51.168;6.840;2022-08-19T10:23:09;19.65;;;17.50;;
29954;SDS011;16812;51.168;6.840;2022-08-19T10:25:38;17.35;;;15.70;;
29954;SDS011;16812;51.168;6.840;2022-08-19T10:28:08;14.18;;;12.95;;
29954;SDS011;16812;51.168;6.840;2022-08-19T10:30:36;15.50;;;13.85;;
29954;SDS011;16812;51.168;6.840;2022-08-19T10:33:03;17.15;;;15.52;;
29954;SDS011;16812;51.168;6.840;2022-08-19T10:35:36;16.45;;;14.75;;
29954;SDS011;16812;51.168;6.840;2022-08-19T10:38:22;17.63;;;15.80;;
29954;SDS011;16812;51.168;6.840;2022-08-19T10:41:05;16.20;;;14.57;;
29954;SDS011;16812;51.168;6.840;2022-08-19T10:43:32;16.70;;;14.98;;
29954;SDS011;16812;51.168;6.840;2022-08-19T10:46:00;14.70;;;13.35;;
29954;SDS011;16812;51.168;6.840;2022-08-19T10:48:27;18.40;;;15.93;;
29954;SDS011;16812;51.168;6.840;2022-08-19T10:50:54;15.55;;;13.95;;
29954;SDS011;16812;51.168;6.840;2022-08-19T10:53:24;15.48;;;13.55;;
29954;SDS011;16812;51.168;6.840;2022-08-19T10:55:51;14.48;;;12.98;;
29954;SDS011;16812;51.168;6.840;2022-08-19T10:58:20;13.75;;;12.25;;
29954;SDS011;16812;51.168;6.840;2022-08-19T11:00:51;16.17;;;12.95;;
29954;SDS011;16812;51.168;6.840;2022-08-19T11:03:18;15.55;;;11.32;;
29954;SDS011;16812;51.168;6.840;2022-08-19T11:05:45;16.70;;;13.95;;
29954;SDS011;16812;51.168;6.840;2022-08-19T11:08:12;15.77;;;14.00;;
29954;SDS011;16812;51.168;6.840;2022-08-19T11:10:48;18.60;;;12.93;;
29954;SDS011;16812;51.168;6.840;2022-08-19T11:13:16;16.55;;;13.73;;
29954;SDS011;16812;51.168;6.840;2022-08-19T11:15:44;17.20;;;14.13;;
29954;SDS011;16812;51.168;6.840;2022-08-19T11:18:12;17.55;;;15.15;;
29954;SDS011;16812;51.168;6.840;2022-08-19T11:20:40;20.45;;;13.52;;
29954;SDS011;16812;51.168;6.840;2022-08-19T11:23:07;17.92;;;13.27;;
29954;SDS011;16812;51.168;6.840;2022-08-19T11:25:34;14.73;;;13.32;;
29954;SDS011;16812;51.168;6.840;2022-08-19T11:28:01;15.85;;;14.07;;
29954;SDS011;16812;51.168;6.840;2022-08-19T11:30:28;15.25;;;13.52;;
29954;SDS011;16812;51.168;6.840;2022-08-19T11:32:57;13.95;;;11.77;;
29954;SDS011;16812;51.168;6.840;2022-08-19T11:35:24;12.63;;;10.30;;
29954;SDS011;16812;51.168;6.840;2022-08-19T11:37:51;13.32;;;11.48;;
29954;SDS011;16812;51.168;6.840;2022-08-19T11:40:18;16.25;;;12.10;;
29954;SDS011;16812;51.168;6.840;2022-08-19T11:42:46;11.15;;;10.05;;
29954;SDS011;16812;51.168;6.840;2022-08-19T11:45:13;11.07;;;9.98;;
29954;SDS011;16812;51.168;6.840;2022-08-19T11:47:40;19.85;;;12.00;;
29954;SDS011;16812;51.168;6.840;2022-08-19T11:50:09;11.15;;;9.82;;
29954;SDS011;16812;51.168;6.840;2022-08-19T11:52:36;14.52;;;9.05;;
29954;SDS011;16812;51.168;6.840;2022-08-19T11:55:03;9.95;;;8.95;;
29954;SDS011;16812;51.168;6.840;2022-08-19T11:57:31;10.60;;;8.88;;
29954;SDS011;16812;51.168;6.840;2022-08-19T11:59:58;14.98;;;10.30;;
29954;SDS011;16812;51.168;6.840;2022-08-19T12:02:25;14.45;;;9.15;;
29954;SDS011;16812;51.168;6.840;2022-08-19T12:04:52;9.30;;;8.00;;
29954;SDS011;16812;51.168;6.840;2022-08-19T12:07:21;10.77;;;8.80;;
29954;SDS011;16812;51.168;6.840;2022-08-19T12:09:48;9.63;;;8.52;;
29954;SDS011;16812;51.168;6.840;2022-08-19T12:12:15;11.80;;;8.67;;
29954;SDS011;16812;51.168;6.840;2022-08-19T12:14:42;10.97;;;8.30;;
29954;SDS011;16812;51.168;6.840;2022-08-19T12:17:09;15.03;;;9.30;;
29954;SDS011;16812;51.168;6.840;2022-08-19T12:19:36;12.00;;;9.77;;
29954;SDS011;16812;51.168;6.840;2022-08-19T12:22:04;12.00;;;9.47;;
29954;SDS011;16812;51.168;6.840;2022-08-19T12:24:32;14.50;;;10.70;;
29954;SDS011;16812;51.168;6.840;2022-08-19T12:27:00;12.77;;;9.03;;
29954;SDS011;16812;51.168;6.840;2022-08-19T12:29:28;16.13;;;9.50;;
29954;SDS011;16812;51.168;6.840;2022-08-19T12:31:56;12.43;;;9.10;;
29954;SDS011;16812;51.168;6.840;2022-08-19T12:34:23;10.77;;;8.20;;
29954;SDS011;16812;51.168;6.840;2022-08-19T12:36:51;10.43;;;8.23;;
29954;SDS011;16812;51.168;6.840;2022-08-19T12:39:18;11.00;;;8.87;;
29954;SDS011;16812;51.168;6.840;2022-08-19T12:41:46;10.20;;;9.10;;
29954;SDS011;16812;51.168;6.840;2022-08-19T12:44:19;11.27;;;8.30;;
29954;SDS011;16812;51.168;6.840;2022-08-19T12:46:55;10.80;;;8.47;;
29954;SDS011;16812;51.168;6.840;2022-08-19T12:49:22;10.05;;;8.88;;
29954;SDS011;16812;51.168;6.840;2022-08-19T12:52:09;8.47;;;7.20;;
29954;SDS011;16812;51.168;6.840;2022-08-19T12:54:39;10.00;;;7.80;;
29954;SDS011;16812;51.168;6.840;2022-08-19T12:57:08;11.20;;;8.10;;
29954;SDS011;16812;51.168;6.840;2022-08-19T12:59:36;12.40;;;8.20;;
29954;SDS011;16812;51.168;6.840;2022-08-19T13:02:03;8.30;;;7.40;;
29954;SDS011;16812;51.168;6.840;2022-08-19T13:04:30;10.60;;;7.53;;
29954;SDS011;16812;51.168;6.840;2022-08-19T13:06:58;11.73;;;6.20;;
29954;SDS011;16812;51.168;6.840;2022-08-19T13:09:25;7.10;;;6.40;;
29954;SDS011;16812;51.168;6.840;2022-08-19T13:11:52;8.00;;;5.40;;
29954;SDS011;16812;51.168;6.840;2022-08-19T13:14:20;4.73;;;3.97;;
29954;SDS011;16812;51.168;6.840;2022-08-19T13:16:47;6.90;;;6.20;;
29954;SDS011;16812;51.168;6.840;2022-08-19T13:19:15;8.80;;;6.83;;
29954;SDS011;16812;51.168;6.840;2022-08-19T13:21:42;10.47;;;6.50;;
29954;SDS011;16812;51.168;6.840;2022-08-19T13:24:09;7.80;;;5.97;;
29954;SDS011;16812;51.168;6.840;2022-08-19T13:26:36;8.13;;;6.90;;
29954;SDS011;16812;51.168;6.840;2022-08-19T13:29:03;9.23;;;6.43;;
29954;SDS011;16812;51.168;6.840;2022-08-19T13:31:33;6.87;;;6.07;;
29954;SDS011;16812;51.168;6.840;2022-08-19T13:34:00;7.43;;;5.70;;
29954;SDS011;16812;51.168;6.840;2022-08-19T13:36:27;7.33;;;6.23;;
29954;SDS011;16812;51.168;6.840;2022-08-19T13:38:55;10.87;;;6.90;;
29954;SDS011;16812;51.168;6.840;2022-08-19T13:41:22;7.97;;;6.60;;
29954;SDS011;16812;51.168;6.840;2022-08-19T13:43:49;6.70;;;6.00;;
29954;SDS011;16812;51.168;6.840;2022-08-19T13:46:16;6.10;;;5.50;;
29954;SDS011;16812;51.168;6.840;2022-08-19T13:48:44;5.97;;;5.30;;
29954;SDS011;16812;51.168;6.840;2022-08-19T13:51:12;13.07;;;6.10;;
29954;SDS011;16812;51.168;6.840;2022-08-19T13:53:39;6.83;;;6.13;;
29954;SDS011;16812;51.168;6.840;2022-08-19T13:56:06;8.23;;;5.60;;
29954;SDS011;16812;51.168;6.840;2022-08-19T13:58:34;7.17;;;5.60;;
29954;SDS011;16812;51.168;6.840;2022-08-19T14:01:01;7.33;;;5.93;;
29954;SDS011;16812;51.168;6.840;2022-08-19T14:03:28;5.57;;;5.07;;
29954;SDS011;16812;51.168;6.840;2022-08-19T14:05:57;5.53;;;5.03;;
29954;SDS011;16812;51.168;6.840;2022-08-19T14:08:24;8.83;;;5.90;;
29954;SDS011;16812;51.168;6.840;2022-08-19T14:10:52;6.60;;;5.73;;
29954;SDS011;16812;51.168;6.840;2022-08-19T14:13:20;7.70;;;5.43;;
29954;SDS011;16812;51.168;6.840;2022-08-19T14:15:48;12.40;;;6.67;;
29954;SDS011;16812;51.168;6.840;2022-08-19T14:18:15;10.23;;;6.47;;
29954;SDS011;16812;51.168;6.840;2022-08-19T14:20:43;6.33;;;5.57;;
29954;SDS011;16812;51.168;6.840;2022-08-19T14:23:12;6.27;;;5.67;;
29954;SDS011;16812;51.168;6.840;2022-08-19T14:25:39;10.07;;;5.90;;
29954;SDS011;16812;51.168;6.840;2022-08-19T14:28:06;8.00;;;5.30;;
29954;SDS011;16812;51.168;6.840;2022-08-19T14:30:34;8.53;;;5.57;;
29954;SDS011;16812;51.168;6.840;2022-08-19T14:33:01;11.70;;;5.63;;
29954;SDS011;16812;51.168;6.840;2022-08-19T14:35:29;9.10;;;5.83;;